Time;durP1;ratioP1;P1;durP2;ratioP2;P2;SDS_P1;SDS_P2;PMS_P1;PMS_P2;Temp;Humidity;BMP_temperature;BMP_pressure;BME280_temperature;BME280_humidity;BME280_pressure;Samples;Min_cycle;Max_cycle;Signal;HPM_P1;HPM_P2
2021/03/20 00:01:12;;;;;;;78.75;49.15;;;;;;;-0.68;78.00;96700.23;1715973;80;21704;-91
2021/03/20 00:03:38;;;;;;;80.28;48.87;;;;;;;-0.70;78.11;96705.91;1710854;80;21385;-91
2021/03/20 00:06:05;;;;;;;85.83;52.13;;;;;;;-0.72;78.24;96702.19;1706007;80;21138;-91
2021/03/20 00:08:31;;;;;;;84.22;49.83;;;;;;;-0.72;78.24;96702.19;1734274;80;21147;-90
2021/03/20 00:10:57;;;;;;;82.70;50.03;;;;;;;-0.74;78.29;96701.94;1746280;79;21137;-91
2021/03/20 00:13:23;;;;;;;81.30;47.75;;;;;;;-0.73;78.24;96706.13;1777599;78;21299;-91
2021/03/20 00:15:52;;;;;;;79.45;49.88;;;;;;;-0.75;78.22;96704.95;1769818;79;21081;-91
2021/03/20 00:18:17;;;;;;;80.30;49.20;;;;;;;-0.85;78.12;96714.59;1761916;79;21247;-91
2021/03/20 00:20:43;;;;;;;78.62;48.38;;;;;;;-0.94;78.27;96713.03;1768495;78;21185;-91
2021/03/20 00:23:09;;;;;;;70.05;42.85;;;;;;;-0.95;78.53;96710.59;1770785;79;21158;-90
2021/03/20 00:25:37;;;;;;;70.28;44.58;;;;;;;-0.93;78.73;96708.28;1778679;78;21113;-91
2021/03/20 00:28:06;;;;;;;81.80;50.28;;;;;;;-0.97;78.68;96714.98;1770737;79;21101;-91
2021/03/20 00:30:32;;;;;;;77.10;50.20;;;;;;;-1.08;78.76;96710.58;1767967;78;21469;-91
2021/03/20 00:32:58;;;;;;;69.97;44.40;;;;;;;-1.17;79.05;96709.91;1776904;79;21121;-91
2021/03/20 00:35:24;;;;;;;44.98;28.80;;;;;;;-1.22;79.16;96712.77;1774244;79;21149;-91
2021/03/20 00:37:51;;;;;;;73.65;48.25;;;;;;;-1.32;79.82;96701.53;1769319;79;21106;-91
2021/03/20 00:40:25;;;;;;;75.70;46.45;;;;;;;-1.41;79.47;96703.88;1769945;78;21170;-91
2021/03/20 00:42:51;;;;;;;83.47;50.03;;;;;;;-1.37;79.69;96706.13;1766709;79;21177;-91
2021/03/20 00:45:18;;;;;;;84.37;49.55;;;;;;;-1.33;79.53;96704.19;1765466;79;21161;-91
2021/03/20 00:47:44;;;;;;;78.50;45.67;;;;;;;-1.36;79.52;96695.01;1753873;79;21264;-91
2021/03/20 00:50:11;;;;;;;70.05;44.93;;;;;;;-1.28;79.54;96703.45;1768612;79;21144;-91
2021/03/20 00:52:37;;;;;;;70.45;44.90;;;;;;;-1.24;79.45;96707.41;1769508;79;21091;-91
2021/03/20 00:55:04;;;;;;;58.55;39.20;;;;;;;-1.21;79.40;96705.93;1772711;79;21336;-91
2021/03/20 00:57:30;;;;;;;42.48;28.98;;;;;;;-1.17;79.23;96706.54;1768725;79;21121;-90
2021/03/20 00:59:57;;;;;;;54.27;38.28;;;;;;;-1.16;79.07;96710.27;1769323;79;21125;-91
2021/03/20 01:02:23;;;;;;;55.73;35.45;;;;;;;-1.16;79.14;96709.45;1764122;79;21149;-91
2021/03/20 01:04:48;;;;;;;56.60;36.68;;;;;;;-1.21;78.98;96708.02;1778559;79;21133;-92
2021/03/20 01:07:14;;;;;;;57.48;38.05;;;;;;;-1.23;78.89;96710.32;1773809;78;21117;-91
2021/03/20 01:09:40;;;;;;;56.63;37.67;;;;;;;-1.25;79.03;96709.61;1776082;79;21129;-90
2021/03/20 01:12:07;;;;;;;52.85;33.48;;;;;;;-1.25;79.04;96712.98;1770067;79;21287;-90
2021/03/20 01:14:33;;;;;;;59.45;38.78;;;;;;;-1.26;78.97;96712.62;1775079;78;21069;-91
2021/03/20 01:16:59;;;;;;;54.70;35.35;;;;;;;-1.27;79.04;96712.72;1775029;79;21446;-90
2021/03/20 01:19:26;;;;;;;38.90;25.68;;;;;;;-1.28;79.22;96713.18;1759910;79;21106;-91
2021/03/20 01:21:52;;;;;;;54.48;35.15;;;;;;;-1.36;79.17;96717.14;1774878;79;21209;-91
2021/03/20 01:24:18;;;;;;;51.98;33.58;;;;;;;-1.42;79.13;96717.09;1774786;79;21137;-91
2021/03/20 01:26:44;;;;;;;45.48;32.42;;;;;;;-1.43;79.45;96719.28;1769781;79;21174;-91
2021/03/20 01:29:10;;;;;;;31.50;21.68;;;;;;;-1.46;79.27;96714.39;1764883;79;21256;-91
2021/03/20 01:31:36;;;;;;;40.43;28.70;;;;;;;-1.61;79.47;96721.29;1774169;78;21246;-91
2021/03/20 01:34:02;;;;;;;39.78;26.48;;;;;;;-1.71;79.44;96723.23;1769814;79;21440;-91
2021/03/20 01:36:28;;;;;;;39.00;25.77;;;;;;;-1.74;79.95;96727.26;1758798;78;21426;-91
2021/03/20 01:38:54;;;;;;;47.75;31.25;;;;;;;-1.82;79.94;96722.17;1774389;78;21347;-90
2021/03/20 01:41:23;;;;;;;36.00;25.15;;;;;;;-1.79;79.97;96733.08;1775916;79;21327;-91
2021/03/20 01:43:49;;;;;;;33.42;24.12;;;;;;;-1.83;79.88;96734.55;1773797;79;21137;-91
2021/03/20 01:46:42;;;;;;;32.70;22.67;;;;;;;-1.88;79.89;96745.50;1773894;78;21153;-92
2021/03/20 01:49:22;;;;;;;28.67;19.25;;;;;;;-1.95;80.03;96741.72;1775101;79;21146;-91
2021/03/20 01:52:20;;;;;;;22.52;17.48;;;;;;;-1.94;80.24;96748.90;1761942;78;21158;-91
2021/03/20 01:54:55;;;;;;;23.02;17.12;;;;;;;-2.02;79.76;96751.09;1760030;78;21449;-91
2021/03/20 01:57:28;;;;;;;28.70;19.62;;;;;;;-2.10;79.90;96757.95;1767273;79;21196;-92
2021/03/20 01:59:55;;;;;;;26.42;18.50;;;;;;;-2.20;79.93;96756.41;1765511;79;21103;-91
2021/03/20 02:02:21;;;;;;;23.95;17.60;;;;;;;-2.25;80.28;96762.70;1770382;79;21161;-92
2021/03/20 02:04:47;;;;;;;20.43;15.45;;;;;;;-2.30;80.09;96764.69;1773583;79;21150;-91
2021/03/20 02:07:14;;;;;;;22.50;16.25;;;;;;;-2.30;79.88;96768.51;1765775;78;21303;-92
2021/03/20 02:09:40;;;;;;;19.90;15.10;;;;;;;-2.26;79.85;96771.25;1769366;78;21149;-92
2021/03/20 02:12:20;;;;;;;21.87;15.43;;;;;;;-2.26;79.86;96772.52;1760483;79;21099;-91
2021/03/20 02:15:13;;;;;;;22.50;16.02;;;;;;;-2.28;79.92;96775.59;1762494;78;21113;-91
2021/03/20 02:17:54;;;;;;;17.48;13.20;;;;;;;-2.27;79.96;96778.07;1752625;78;21145;-91
2021/03/20 02:21:10;;;;;;;22.45;16.75;;;;;;;-2.22;79.95;96780.33;1766977;78;21168;-92
2021/03/20 02:23:54;;;;;;;23.60;17.62;;;;;;;-2.23;79.81;96781.24;1774421;79;21110;-91
2021/03/20 02:26:58;;;;;;;20.85;16.10;;;;;;;-2.19;79.92;96780.14;1752893;78;21152;-91
2021/03/20 02:30:04;;;;;;;24.32;18.52;;;;;;;-2.11;79.98;96781.77;1763647;79;21903;-88
2021/03/20 02:32:57;;;;;;;24.72;16.93;;;;;;;-2.24;79.64;96788.52;1764177;78;21407;-88
2021/03/20 02:35:41;;;;;;;24.43;18.23;;;;;;;-2.39;79.81;96794.08;1760513;79;21141;-87
2021/03/20 02:38:18;;;;;;;24.12;19.27;;;;;;;-2.45;79.88;96791.87;1774005;78;21121;-87
2021/03/20 02:41:28;;;;;;;26.80;18.25;;;;;;;-2.48;79.92;96790.34;1767609;79;21135;-88
2021/03/20 02:44:21;;;;;;;20.75;15.72;;;;;;;-2.52;79.58;96802.07;1766060;78;21157;-87
2021/03/20 02:47:00;;;;;;;20.65;15.45;;;;;;;-2.61;79.61;96803.88;1740179;78;21380;-87
2021/03/20 02:49:46;;;;;;;20.55;15.00;;;;;;;-2.74;79.70;96807.62;1764032;79;21130;-88
2021/03/20 02:52:21;;;;;;;19.42;12.95;;;;;;;-2.87;79.23;96816.86;1748048;78;21144;-87
2021/03/20 02:55:04;;;;;;;14.68;11.25;;;;;;;-3.13;79.28;96795.46;1761455;79;21312;-88
2021/03/20 02:57:48;;;;;;;19.67;15.30;;;;;;;-3.06;79.39;96824.73;1759822;79;21459;-87
2021/03/20 03:00:25;;;;;;;15.60;10.75;;;;;;;-3.23;79.44;96825.69;1767294;78;21129;-87
2021/03/20 03:02:52;;;;;;;11.90;9.08;;;;;;;-3.36;79.82;96831.89;1758209;79;21285;-88
2021/03/20 03:05:22;;;;;;;16.52;12.15;;;;;;;-3.43;79.97;96834.84;1725618;80;21122;-87
2021/03/20 03:07:52;;;;;;;15.38;10.78;;;;;;;-3.48;80.22;96835.56;1730272;79;21149;-87
2021/03/20 03:10:33;;;;;;;25.45;14.38;;;;;;;-3.49;79.97;96842.36;1765377;79;22120;-88
2021/03/20 03:13:09;;;;;;;13.80;10.70;;;;;;;-3.53;79.75;96846.44;1767116;79;21415;-87
2021/03/20 03:15:39;;;;;;;17.30;14.40;;;;;;;-3.58;80.24;96845.84;1761623;79;21469;-88
2021/03/20 03:18:26;;;;;;;21.68;14.03;;;;;;;-3.65;79.92;96842.38;1735993;80;21184;-90
2021/03/20 03:20:55;;;;;;;20.40;14.85;;;;;;;-3.59;80.12;96851.83;1690414;82;21150;-90
2021/03/20 03:23:23;;;;;;;13.22;10.03;;;;;;;-3.59;79.94;96856.91;1690132;81;21304;-90
2021/03/20 03:25:56;;;;;;;21.45;14.55;;;;;;;-3.63;79.96;96863.88;1754840;79;21275;-91
2021/03/20 03:28:26;;;;;;;18.50;12.43;;;;;;;-3.65;79.92;96870.31;1770264;79;21340;-92
2021/03/20 03:30:52;;;;;;;13.10;10.85;;;;;;;-3.67;79.81;96873.39;1772682;79;21111;-91
2021/03/20 03:33:41;;;;;;;14.55;10.70;;;;;;;-3.71;79.70;96874.92;1739749;79;21142;-91
2021/03/20 03:36:10;;;;;;;17.35;12.80;;;;;;;-3.72;79.63;96882.17;1768373;79;21169;-91
2021/03/20 03:38:47;;;;;;;13.58;10.60;;;;;;;-3.72;79.76;96888.07;1777460;78;21149;-91
2021/03/20 03:41:31;;;;;;;15.28;10.28;;;;;;;-3.68;79.77;96888.72;1761952;78;21097;-90
2021/03/20 03:43:57;;;;;;;10.85;8.85;;;;;;;-3.68;79.75;96884.45;1770874;78;21263;-92
2021/03/20 03:46:27;;;;;;;16.42;11.93;;;;;;;-3.67;79.63;96884.83;1772417;79;21224;-91
2021/03/20 03:48:55;;;;;;;15.55;11.65;;;;;;;-3.73;79.39;96892.78;1768604;79;21357;-92
2021/03/20 03:51:22;;;;;;;13.75;11.33;;;;;;;-3.75;79.61;96890.75;1772216;78;22327;-91
2021/03/20 03:53:48;;;;;;;16.25;10.70;;;;;;;-3.73;79.49;96898.31;1762521;79;21498;-92
2021/03/20 03:56:38;;;;;;;13.90;10.48;;;;;;;-3.78;79.47;96894.73;1772244;78;21428;-92
2021/03/20 03:59:18;;;;;;;17.92;11.55;;;;;;;-3.76;79.50;96902.26;1768756;78;21148;-92
2021/03/20 04:02:13;;;;;;;14.35;12.00;;;;;;;-3.76;79.49;96904.80;1771647;78;21142;-91
2021/03/20 04:05:13;;;;;;;14.33;11.05;;;;;;;-3.74;79.53;96908.92;1765825;79;21271;-91
2021/03/20 04:08:14;;;;;;;13.53;10.93;;;;;;;-3.67;79.41;96910.22;1774566;79;21153;-92
2021/03/20 04:10:51;;;;;;;15.63;11.53;;;;;;;-3.52;79.43;96903.51;1744959;78;21414;-90
2021/03/20 04:13:43;;;;;;;16.97;12.33;;;;;;;-3.52;79.05;96912.84;1766932;78;21650;-91
2021/03/20 04:16:16;;;;;;;14.73;11.50;;;;;;;-3.53;78.75;96915.02;1745206;79;21124;-91
2021/03/20 04:19:24;;;;;;;13.20;10.40;;;;;;;-3.55;78.78;96920.19;1768517;79;21133;-92
2021/03/20 04:21:54;;;;;;;13.70;10.75;;;;;;;-3.57;78.37;96922.45;1767388;78;21241;-91
2021/03/20 04:24:43;;;;;;;15.60;11.30;;;;;;;-3.71;78.32;96923.17;1744461;79;21172;-91
2021/03/20 04:27:14;;;;;;;14.45;12.55;;;;;;;-3.79;78.35;96923.56;1778665;78;21145;-92
2021/03/20 04:29:57;;;;;;;16.80;11.97;;;;;;;-3.77;78.44;96925.56;1766819;79;21154;-91
2021/03/20 04:32:27;;;;;;;19.35;13.10;;;;;;;-3.73;78.36;96927.06;1737528;79;21133;-91
2021/03/20 04:35:04;;;;;;;15.85;11.57;;;;;;;-3.68;78.31;96926.36;1745768;79;21435;-91
2021/03/20 04:37:35;;;;;;;18.10;12.20;;;;;;;-3.67;77.92;96926.73;1754763;79;21142;-92
2021/03/20 04:40:01;;;;;;;15.75;11.70;;;;;;;-3.68;78.04;96930.17;1765036;79;21305;-90
2021/03/20 04:42:33;;;;;;;17.57;12.98;;;;;;;-3.60;78.11;96936.55;1773841;79;21130;-92
2021/03/20 04:45:04;;;;;;;15.10;12.00;;;;;;;-3.55;78.01;96940.96;1766535;79;21138;-92
2021/03/20 04:47:30;;;;;;;38.50;22.05;;;;;;;-3.53;77.90;96937.44;1767771;79;21290;-91
2021/03/20 04:50:06;;;;;;;16.42;11.33;;;;;;;-3.61;77.61;96939.55;1689327;79;21169;-91
2021/03/20 04:52:39;;;;;;;18.52;12.60;;;;;;;-3.69;77.13;96942.95;1770901;79;21355;-91
2021/03/20 04:55:07;;;;;;;16.45;11.75;;;;;;;-3.79;76.97;96950.67;1771891;79;21165;-91
2021/03/20 04:57:40;;;;;;;19.95;13.00;;;;;;;-3.82;77.06;96950.84;1768185;79;21358;-91
2021/03/20 05:00:35;;;;;;;22.10;13.32;;;;;;;-3.87;76.87;96951.09;1772724;79;21130;-91
2021/03/20 05:03:28;;;;;;;15.03;11.90;;;;;;;-3.84;76.99;96952.64;1769451;79;21125;-92
2021/03/20 05:05:57;;;;;;;18.40;11.33;;;;;;;-3.81;76.87;96957.55;1768425;79;21172;-91
2021/03/20 05:08:46;;;;;;;13.65;9.48;;;;;;;-3.86;76.15;96959.52;1753802;79;21165;-91
2021/03/20 05:11:17;;;;;;;16.27;10.05;;;;;;;-3.88;76.14;96973.56;1775861;79;21172;-91
2021/03/20 05:14:12;;;;;;;12.63;8.20;;;;;;;-3.93;75.47;96981.84;1772325;79;21275;-91
2021/03/20 05:16:47;;;;;;;17.20;10.40;;;;;;;-3.98;75.14;96974.92;1765047;78;21283;-92
2021/03/20 05:19:13;;;;;;;10.82;6.20;;;;;;;-4.02;75.18;96986.14;1768530;79;21122;-91
2021/03/20 05:21:42;;;;;;;10.60;7.53;;;;;;;-4.10;72.97;96992.03;1762120;79;21268;-92
2021/03/20 05:24:16;;;;;;;16.85;10.68;;;;;;;-4.22;74.03;96996.02;1765334;79;21292;-91
2021/03/20 05:26:42;;;;;;;12.80;9.35;;;;;;;-4.29;74.21;96999.30;1772579;79;21134;-85
2021/03/20 05:29:08;;;;;;;14.75;9.78;;;;;;;-4.31;73.79;97004.08;1759841;79;21149;-86
2021/03/20 05:31:35;;;;;;;14.80;9.10;;;;;;;-4.33;73.89;97001.62;1771337;78;21598;-86
2021/03/20 05:34:09;;;;;;;17.42;11.40;;;;;;;-4.33;73.66;97004.16;1734836;80;21097;-86
2021/03/20 05:36:36;;;;;;;23.07;13.53;;;;;;;-4.25;74.16;97011.38;1713805;80;21515;-85
2021/03/20 05:39:02;;;;;;;16.75;10.43;;;;;;;-4.15;74.24;97017.66;1723003;80;21498;-86
2021/03/20 05:41:43;;;;;;;17.12;11.28;;;;;;;-4.10;73.82;97011.06;1685834;82;21162;-86
2021/03/20 05:44:41;;;;;;;15.75;9.48;;;;;;;-4.07;73.86;97015.98;1769603;78;21279;-85
2021/03/20 05:47:42;;;;;;;13.62;9.55;;;;;;;-3.93;73.53;97014.84;1790542;78;23611;-85
2021/03/20 05:50:52;;;;;;;13.58;7.80;;;;;;;-3.93;73.42;97021.20;1786664;78;21136;-85
2021/03/20 05:53:30;;;;;;;13.80;9.78;;;;;;;-3.84;72.93;97013.58;1778377;79;21114;-87
2021/03/20 05:56:12;;;;;;;17.45;9.80;;;;;;;-3.98;71.91;97023.97;1750255;78;21281;-87
2021/03/20 05:58:51;;;;;;;;;;;;;;;-3.89;72.59;97026.52;1793200;79;21333;-90
2021/03/20 06:04:44;;;;;;;15.03;9.55;;;;;;;-3.46;72.55;97023.02;1888115;74;24143;-87
2021/03/20 06:07:34;;;;;;;13.58;10.18;;;;;;;-3.36;72.20;97031.37;1855477;75;21145;-86
2021/03/20 06:10:27;;;;;;;15.83;10.58;;;;;;;-3.26;71.97;97030.87;1855446;75;21305;-86
2021/03/20 06:13:37;;;;;;;10.78;6.60;;;;;;;-3.14;72.26;97032.31;1829760;77;21205;-91
2021/03/20 06:16:33;;;;;;;15.30;8.68;;;;;;;-3.05;70.58;97038.64;1809571;77;21161;-87
2021/03/20 06:19:25;;;;;;;14.15;8.85;;;;;;;-3.23;69.55;97039.17;1825724;75;21309;-86
2021/03/20 06:22:31;;;;;;;12.68;8.95;;;;;;;-3.42;70.01;97041.86;1854534;76;21137;-87
2021/03/20 06:25:06;;;;;;;12.90;7.65;;;;;;;-3.40;70.67;97048.95;1849805;76;21098;-87
2021/03/20 06:27:37;;;;;;;14.50;9.80;;;;;;;-3.32;69.68;97043.45;1848992;76;21078;-87
2021/03/20 06:30:31;;;;;;;17.50;10.32;;;;;;;-3.39;70.37;97051.04;1851977;76;21117;-88
2021/03/20 06:33:25;;;;;;;16.70;10.82;;;;;;;-3.32;70.34;97055.71;1843798;76;21098;-86
2021/03/20 06:36:39;;;;;;;15.63;9.95;;;;;;;-3.36;69.49;97057.23;1851993;76;21090;-86
2021/03/20 06:39:45;;;;;;;22.02;13.53;;;;;;;-3.39;70.28;97065.84;1849165;76;21136;-85
2021/03/20 06:42:29;;;;;;;26.77;16.77;;;;;;;-3.19;70.27;97062.25;1833127;75;21523;-91
2021/03/20 06:45:01;;;;;;;23.57;14.63;;;;;;;-3.13;69.10;97070.81;1856654;76;21050;-87
2021/03/20 06:47:29;;;;;;;16.85;10.38;;;;;;;-3.05;69.76;97070.42;1855068;76;21317;-86
2021/03/20 06:50:10;;;;;;;18.92;11.18;;;;;;;-2.94;68.53;97077.01;1855835;76;21078;-87
2021/03/20 06:52:37;;;;;;;19.32;11.18;;;;;;;-2.96;68.64;97075.00;1850886;76;21069;-87
2021/03/20 06:55:10;;;;;;;19.57;11.15;;;;;;;-2.88;68.61;97078.42;1855743;76;21125;-87
2021/03/20 06:57:39;;;;;;;21.45;12.68;;;;;;;-2.78;69.07;97077.83;1850805;76;21251;-87
2021/03/20 07:00:31;;;;;;;16.57;9.30;;;;;;;-2.63;69.14;97076.63;1850874;76;21199;-86
2021/03/20 07:03:34;;;;;;;18.10;10.30;;;;;;;-2.44;68.00;97081.11;1860901;76;21192;-92
2021/03/20 07:06:32;;;;;;;15.15;10.48;;;;;;;-2.43;67.84;97081.47;1852923;76;21094;-87
2021/03/20 07:09:01;;;;;;;15.88;10.23;;;;;;;-2.15;68.87;97078.19;1767142;79;21877;-87
2021/03/20 07:11:40;;;;;;;19.37;10.60;;;;;;;-2.04;67.48;97083.95;1853677;76;21308;-87
2021/03/20 07:14:10;;;;;;;14.85;9.18;;;;;;;-2.09;65.94;97081.67;1848480;76;21039;-87
2021/03/20 07:16:58;;;;;;;18.75;10.13;;;;;;;-2.46;65.17;97067.17;1851763;76;21416;-87
2021/03/20 07:19:25;;;;;;;16.05;10.65;;;;;;;-2.38;66.57;97090.12;1851281;76;21114;-92
2021/03/20 07:22:02;;;;;;;18.85;11.63;;;;;;;-2.11;67.29;97097.50;1858551;76;21149;-92
2021/03/20 07:24:42;;;;;;;18.52;11.03;;;;;;;-1.79;67.33;97094.40;1853377;76;21089;-92
2021/03/20 07:27:21;;;;;;;16.73;11.00;;;;;;;-1.63;66.23;97092.59;1848322;76;21251;-86
2021/03/20 07:29:56;;;;;;;18.85;9.63;;;;;;;-1.48;66.65;97090.86;1852223;76;21075;-91
2021/03/20 07:32:31;;;;;;;17.75;11.33;;;;;;;-1.45;64.76;97098.80;1854453;76;21086;-91
2021/03/20 07:35:17;;;;;;;17.30;10.30;;;;;;;-1.37;65.37;97099.97;1852297;76;21292;-86
2021/03/20 07:37:43;;;;;;;15.75;8.90;;;;;;;-1.21;64.17;97107.08;1853003;76;21054;-91
2021/03/20 07:40:22;;;;;;;16.30;10.25;;;;;;;-1.07;65.04;97111.36;1856777;75;21110;-87
2021/03/20 07:42:48;;;;;;;19.42;10.70;;;;;;;-1.24;63.81;97111.09;1843048;76;21208;-87
2021/03/20 07:45:23;;;;;;;17.07;12.05;;;;;;;-1.14;64.76;97115.62;1846687;77;21090;-87
2021/03/20 07:48:00;;;;;;;16.07;12.13;;;;;;;-0.97;64.42;97117.55;1837708;77;21239;-92
2021/03/20 07:50:46;;;;;;;15.83;10.70;;;;;;;-1.11;64.46;97118.02;1788731;77;21128;-88
2021/03/20 07:53:22;;;;;;;30.23;16.07;;;;;;;-1.05;64.53;97119.73;1802814;77;21262;-88
2021/03/20 07:56:03;;;;;;;17.50;10.18;;;;;;;-0.80;64.40;97121.64;1848709;76;21480;-87
2021/03/20 07:58:38;;;;;;;15.45;10.43;;;;;;;-0.52;64.15;97117.36;1828362;77;21116;-88
2021/03/20 08:01:09;;;;;;;18.10;11.18;;;;;;;-0.54;64.24;97122.56;1832456;77;21107;-85
2021/03/20 08:03:55;;;;;;;15.58;10.30;;;;;;;-0.20;64.05;97125.56;1846732;77;21901;-86
2021/03/20 08:06:36;;;;;;;17.07;11.10;;;;;;;-0.19;63.26;97122.91;1831141;77;21083;-86
2021/03/20 08:09:25;;;;;;;15.32;10.60;;;;;;;-0.36;63.36;97129.53;1795886;79;21137;-86
2021/03/20 08:12:03;;;;;;;18.50;10.53;;;;;;;-0.46;62.47;97126.75;1756717;80;21256;-86
2021/03/20 08:14:47;;;;;;;15.75;9.50;;;;;;;-0.49;62.88;97133.77;1797517;79;21354;-86
2021/03/20 08:17:16;;;;;;;18.48;9.50;;;;;;;-0.57;62.84;97134.70;1768274;79;21082;-86
2021/03/20 08:19:42;;;;;;;13.22;7.65;;;;;;;-0.67;62.05;97128.88;1759116;80;21106;-85
2021/03/20 08:23:03;;;;;;;14.13;8.65;;;;;;;-0.49;61.15;97129.50;1754170;80;21361;-91
2021/03/20 08:25:52;;;;;;;17.00;9.60;;;;;;;-0.59;61.74;97132.25;1784449;78;21456;-91
2021/03/20 08:28:42;;;;;;;18.50;10.48;;;;;;;-0.72;61.91;97127.53;1758984;79;21089;-85
2021/03/20 08:31:30;;;;;;;19.07;11.53;;;;;;;-0.37;60.77;97135.56;1779800;80;21164;-86
2021/03/20 08:34:20;;;;;;;16.57;9.98;;;;;;;0.18;61.70;97130.80;1777048;80;21144;-86
2021/03/20 08:37:15;;;;;;;18.82;10.58;;;;;;;0.56;58.56;97124.44;1774985;80;21192;-86
2021/03/20 08:40:25;;;;;;;14.10;8.90;;;;;;;0.68;59.59;97127.93;1774216;80;21165;-87
2021/03/20 08:43:25;;;;;;;17.57;9.50;;;;;;;0.94;58.59;97124.88;1789306;79;21145;-86
2021/03/20 08:45:59;;;;;;;10.98;6.00;;;;;;;1.28;59.84;97128.51;1796266;79;21130;-87
2021/03/20 08:48:52;;;;;;;14.73;7.00;;;;;;;1.50;56.96;97124.83;1792320;79;21217;-86
2021/03/20 08:51:41;;;;;;;10.88;7.08;;;;;;;1.76;58.27;97125.54;1773025;80;21536;-86
2021/03/20 08:54:45;;;;;;;7.40;5.00;;;;;;;1.93;57.29;97123.87;1767603;80;21078;-85
2021/03/20 10:49:45;;;;;;;11.05;7.40;;;;;;;4.06;47.36;97182.59;1826222;75;22763;-86
2021/03/20 10:52:21;;;;;;;8.68;5.72;;;;;;;3.90;47.98;97183.01;1777187;78;21097;-86
2021/03/20 10:54:52;;;;;;;11.10;7.25;;;;;;;3.90;47.28;97183.45;1761053;80;21253;-86
2021/03/20 10:57:21;;;;;;;10.13;7.03;;;;;;;3.64;47.12;97180.36;1764265;79;21129;-86
2021/03/20 10:59:48;;;;;;;11.43;7.17;;;;;;;3.36;47.54;97177.81;1774539;78;21098;-85
2021/03/20 11:02:31;;;;;;;10.38;6.87;;;;;;;3.37;48.18;97178.16;1732319;79;21447;-85
2021/03/20 11:05:15;;;;;;;12.95;7.65;;;;;;;3.36;48.37;97173.95;1759188;79;21148;-86
2021/03/20 11:07:50;;;;;;;10.85;7.78;;;;;;;3.28;48.53;97177.59;1776026;78;21127;-86
2021/03/20 11:10:35;;;;;;;14.70;7.65;;;;;;;3.30;47.16;97178.29;1767659;78;21144;-86
2021/03/20 11:13:08;;;;;;;13.40;7.83;;;;;;;3.12;46.87;97186.11;1768892;78;21310;-86
2021/03/20 11:15:36;;;;;;;13.15;8.38;;;;;;;3.07;48.78;97186.43;1766766;79;21410;-86
2021/03/20 11:18:06;;;;;;;14.15;8.90;;;;;;;3.36;49.99;97185.52;1768297;79;21152;-86
2021/03/20 11:20:36;;;;;;;10.75;7.65;;;;;;;3.60;50.50;97178.97;1767333;79;21130;-85
2021/03/20 11:23:04;;;;;;;12.70;8.18;;;;;;;3.65;49.56;97183.75;1774721;78;21111;-86
2021/03/20 11:25:38;;;;;;;13.60;8.35;;;;;;;3.50;48.32;97184.46;1757346;79;21149;-86
2021/03/20 11:28:17;;;;;;;14.43;8.35;;;;;;;3.22;47.66;97189.59;1762528;79;21165;-86
2021/03/20 11:30:47;;;;;;;14.53;8.13;;;;;;;2.76;48.36;97184.52;1764461;79;21331;-86
2021/03/20 11:33:22;;;;;;;17.15;11.25;;;;;;;2.77;48.51;97188.28;1760763;79;21113;-86
2021/03/20 11:35:51;;;;;;;16.20;10.25;;;;;;;2.65;49.41;97181.02;1768237;79;21243;-85
2021/03/20 11:38:18;;;;;;;26.25;14.07;;;;;;;2.66;48.78;97186.50;1765946;79;21130;-86
2021/03/20 11:40:47;;;;;;;15.98;9.58;;;;;;;2.62;49.11;97182.53;1766568;79;21144;-86
2021/03/20 11:43:27;;;;;;;17.87;10.20;;;;;;;2.54;48.13;97177.12;1777536;78;21453;-85
2021/03/20 11:45:55;;;;;;;16.57;9.45;;;;;;;2.41;48.73;97170.78;1766603;79;21313;-85
2021/03/20 11:48:30;;;;;;;16.15;10.60;;;;;;;2.45;48.46;97170.12;1747287;79;21363;-85
2021/03/20 11:50:58;;;;;;;16.37;10.53;;;;;;;2.38;50.02;97170.20;1788441;78;21355;-85
2021/03/20 11:53:31;;;;;;;19.25;11.10;;;;;;;2.56;49.67;97172.70;1783373;78;21102;-86
2021/03/20 11:55:58;;;;;;;15.93;10.45;;;;;;;2.61;49.35;97167.25;1722934;81;21145;-86
2021/03/20 11:58:33;;;;;;;17.10;11.25;;;;;;;2.71;48.37;97161.30;1770462;80;21227;-85
2021/03/20 12:01:03;;;;;;;15.70;9.80;;;;;;;2.71;48.97;97158.73;1783113;78;21123;-85
2021/03/20 12:03:37;;;;;;;15.55;10.30;;;;;;;2.69;48.77;97153.38;1784641;78;21108;-87
2021/03/20 12:06:21;;;;;;;20.55;12.35;;;;;;;2.76;49.14;97155.82;1779521;78;21272;-87
2021/03/20 12:08:49;;;;;;;13.32;9.73;;;;;;;2.62;48.26;97152.20;1779527;78;21525;-87
2021/03/20 12:11:19;;;;;;;15.23;9.88;;;;;;;2.33;48.40;97144.89;1763414;80;21156;-86
2021/03/20 12:13:56;;;;;;;16.55;9.50;;;;;;;2.09;48.18;97146.66;1776801;78;21095;-86
2021/03/20 12:16:40;;;;;;;15.32;9.35;;;;;;;1.89;49.60;97154.50;1782947;78;21113;-87
2021/03/20 12:19:11;;;;;;;18.57;10.20;;;;;;;1.79;48.95;97151.78;1776026;78;21271;-87
2021/03/20 12:22:08;;;;;;;16.17;10.85;;;;;;;1.75;48.20;97150.81;1754755;80;21138;-87
2021/03/20 12:24:48;;;;;;;17.23;10.38;;;;;;;1.89;48.70;97149.37;1748017;80;21105;-87
2021/03/20 12:27:31;;;;;;;15.72;10.70;;;;;;;1.81;48.50;97142.70;1805166;78;21227;-87
2021/03/20 12:30:29;;;;;;;13.85;8.85;;;;;;;1.95;48.30;97140.41;1804627;78;21237;-87
2021/03/20 12:33:16;;;;;;;13.13;8.53;;;;;;;2.18;47.35;97148.57;1800097;78;21101;-87
2021/03/20 12:35:45;;;;;;;14.58;8.38;;;;;;;2.36;47.40;97139.53;1759474;80;21347;-88
2021/03/20 12:38:26;;;;;;;14.23;8.83;;;;;;;2.71;48.30;97136.11;1755368;80;21101;-88
2021/03/20 12:41:01;;;;;;;18.80;13.28;;;;;;;2.90;47.82;97129.13;1787417;78;21097;-88
2021/03/20 12:43:32;;;;;;;19.25;12.07;;;;;;;3.23;48.71;97126.55;1768847;80;21203;-87
2021/03/20 12:46:01;;;;;;;13.25;9.90;;;;;;;3.47;48.49;97130.28;1751247;81;21109;-87
2021/03/20 12:48:29;;;;;;;13.93;8.53;;;;;;;3.58;48.36;97128.98;1786574;78;21117;-87
2021/03/20 12:51:03;;;;;;;12.80;8.33;;;;;;;3.36;47.48;97127.72;1765005;80;21125;-87
2021/03/20 12:53:29;;;;;;;13.50;8.23;;;;;;;3.13;47.30;97134.63;1775818;80;21570;-87
2021/03/20 12:55:57;;;;;;;13.90;8.35;;;;;;;3.07;47.72;97127.37;1768445;78;21126;-87
2021/03/20 12:58:24;;;;;;;14.40;8.80;;;;;;;3.08;46.37;97126.44;1774819;77;21449;-87
2021/03/20 13:00:52;;;;;;;10.25;7.20;;;;;;;2.99;46.37;97125.41;1749431;81;21120;-87
2021/03/20 13:03:20;;;;;;;14.03;8.85;;;;;;;2.84;46.75;97125.28;1787402;78;21239;-87
2021/03/20 13:05:48;;;;;;;12.85;6.85;;;;;;;2.76;46.58;97125.48;1793772;79;21137;-87
2021/03/20 13:08:20;;;;;;;10.72;6.85;;;;;;;2.66;44.75;97126.66;1752582;78;21144;-87
2021/03/20 13:10:46;;;;;;;10.85;7.10;;;;;;;2.45;46.66;97121.84;1732140;80;21228;-87
2021/03/20 13:13:13;;;;;;;15.88;8.85;;;;;;;2.46;44.87;97125.58;1776956;78;21232;-86
2021/03/20 13:15:38;;;;;;;13.13;7.22;;;;;;;2.24;46.13;97130.16;1772358;79;21260;-86
2021/03/20 13:18:05;;;;;;;12.45;8.68;;;;;;;2.24;47.28;97125.03;1734312;80;21095;-85
2021/03/20 13:20:31;;;;;;;14.60;9.20;;;;;;;2.34;47.36;97121.34;1770207;78;21113;-86
2021/03/20 13:22:57;;;;;;;16.40;9.10;;;;;;;2.44;47.22;97121.47;1768857;79;21228;-86
2021/03/20 13:25:30;;;;;;;12.33;7.35;;;;;;;2.55;48.56;97121.03;1773768;79;21237;-85
2021/03/20 13:27:56;;;;;;;12.65;7.50;;;;;;;2.66;47.62;97121.53;1773439;79;21114;-85
2021/03/20 13:30:28;;;;;;;11.83;7.30;;;;;;;2.36;46.22;97129.27;1764552;78;21098;-86
2021/03/20 13:32:54;;;;;;;11.28;8.45;;;;;;;2.36;46.22;97129.27;1769863;79;21153;-86
2021/03/20 13:35:22;;;;;;;13.85;7.87;;;;;;;2.36;46.83;97122.05;1765608;79;21232;-85
2021/03/20 13:37:48;;;;;;;12.45;7.00;;;;;;;2.43;47.88;97120.66;1767559;79;21141;-85
2021/03/20 13:40:14;;;;;;;14.25;8.15;;;;;;;2.49;48.02;97120.22;1786300;78;21069;-86
2021/03/20 13:42:40;;;;;;;13.68;8.68;;;;;;;2.46;46.88;97120.45;1767064;78;21115;-85
2021/03/20 13:45:11;;;;;;;16.10;8.35;;;;;;;2.33;46.56;97121.00;1760425;79;21100;-86
2021/03/20 13:47:37;;;;;;;12.35;7.17;;;;;;;2.07;45.53;97116.01;1765613;80;22014;-85
2021/03/20 13:50:04;;;;;;;11.73;7.12;;;;;;;1.81;45.03;97120.92;1779251;78;21232;-85
2021/03/20 13:52:31;;;;;;;13.45;7.55;;;;;;;1.79;46.57;97118.94;1769865;78;21250;-85
2021/03/20 13:54:57;;;;;;;11.85;7.47;;;;;;;1.85;45.74;97113.83;1763429;78;21437;-85
2021/03/20 13:57:22;;;;;;;12.20;7.35;;;;;;;1.94;46.38;97114.44;1751467;79;21113;-86
2021/03/20 13:59:48;;;;;;;13.60;8.55;;;;;;;1.93;44.98;97111.52;1752470;79;21255;-85